Time;durP1;ratioP1;P1;durP2;ratioP2;P2;SDS_P1;SDS_P2;PMS_P1;PMS_P2;Temp;Humidity;BMP_temperature;BMP_pressure;BME280_temperature;BME280_humidity;BME280_pressure;Samples;Min_cycle;Max_cycle;Signal;HPM_P1;HPM_P2
2023/10/18 00:01:25;;;;;;;121.80;115.65;;;18.00;99.90;;;;;;4970097;28;20511;-71
2023/10/18 00:03:54;;;;;;;88.22;83.70;;;18.10;99.90;;;;;;4974358;28;20031;-71
2023/10/18 00:06:22;;;;;;;80.60;76.45;;;18.10;99.90;;;;;;4975099;28;20055;-71
2023/10/18 00:08:57;;;;;;;75.60;71.75;;;18.00;99.90;;;;;;4970922;28;20043;-71
2023/10/18 00:11:26;;;;;;;76.68;72.57;;;18.00;99.90;;;;;;4972483;28;20380;-71
2023/10/18 00:13:53;;;;;;;94.18;89.32;;;18.00;99.90;;;;;;4975167;28;20035;-71
2023/10/18 00:16:20;;;;;;;155.43;147.30;;;18.10;99.90;;;;;;4973627;28;20046;-71
2023/10/18 00:18:47;;;;;;;185.18;175.70;;;18.10;99.90;;;;;;4973872;28;20507;-71
2023/10/18 00:21:14;;;;;;;157.70;149.55;;;18.10;99.90;;;;;;4973572;28;20132;-71
2023/10/18 00:23:40;;;;;;;131.30;124.50;;;18.10;99.90;;;;;;4972588;28;20046;-71
2023/10/18 00:26:07;;;;;;;118.63;112.65;;;18.10;99.90;;;;;;4974723;28;20456;-71
2023/10/18 00:28:42;;;;;;;68.32;64.50;;;18.10;99.90;;;;;;4974484;28;20035;-72
2023/10/18 00:31:18;;;;;;;150.73;143.25;;;18.20;99.90;;;;;;4973273;28;20030;-71
2023/10/18 00:33:44;;;;;;;118.70;111.88;;;18.20;99.90;;;;;;4971857;28;20396;-72
2023/10/18 00:36:11;;;;;;;79.65;75.60;;;18.20;99.90;;;;;;4974084;28;20042;-70
2023/10/18 00:38:40;;;;;;;82.55;78.38;;;18.20;99.90;;;;;;4973712;28;20042;-71
2023/10/18 00:41:09;;;;;;;155.93;148.13;;;18.20;99.90;;;;;;4975074;28;20054;-71
2023/10/18 00:43:36;;;;;;;85.20;80.72;;;18.20;99.90;;;;;;4973897;28;20047;-70
2023/10/18 00:46:02;;;;;;;89.22;84.70;;;18.20;99.90;;;;;;4973601;28;20054;-71
2023/10/18 00:48:28;;;;;;;108.75;103.28;;;18.10;99.90;;;;;;4974186;28;20030;-71
2023/10/18 00:50:56;;;;;;;106.30;101.03;;;18.20;99.90;;;;;;4973971;28;20396;-71
2023/10/18 00:53:23;;;;;;;75.82;72.00;;;18.20;99.90;;;;;;4974978;28;20031;-71
2023/10/18 00:55:57;;;;;;;80.43;76.25;;;18.20;99.90;;;;;;4971596;28;20035;-71
2023/10/18 00:58:23;;;;;;;211.48;200.80;;;18.20;99.90;;;;;;4973242;28;20046;-71
2023/10/18 01:00:51;;;;;;;129.25;122.22;;;18.20;99.90;;;;;;4966816;28;20476;-70
2023/10/18 01:03:30;;;;;;;71.85;68.25;;;18.20;99.90;;;;;;4967342;28;20062;-71
2023/10/18 01:06:00;;;;;;;50.88;48.30;;;18.20;99.90;;;;;;4966579;28;20054;-67
2023/10/18 01:08:29;;;;;;;61.15;58.05;;;18.20;99.90;;;;;;4961244;28;20043;-72
2023/10/18 01:11:12;;;;;;;69.85;66.22;;;18.20;99.90;;;;;;4967012;28;20035;-70
2023/10/18 01:13:42;;;;;;;85.80;81.50;;;18.20;99.90;;;;;;4954535;29;20023;-71
2023/10/18 01:16:21;;;;;;;86.60;82.35;;;18.20;99.90;;;;;;4972766;28;20054;-71
2023/10/18 01:18:48;;;;;;;172.13;163.27;;;18.20;99.90;;;;;;4971702;28;20043;-71
2023/10/18 01:21:16;;;;;;;215.60;204.77;;;18.10;99.90;;;;;;4966882;28;20030;-71
2023/10/18 01:23:50;;;;;;;110.75;105.10;;;18.10;99.90;;;;;;4973936;28;20046;-71
2023/10/18 01:26:24;;;;;;;104.43;99.18;;;18.10;99.90;;;;;;4972710;28;20058;-71
2023/10/18 01:28:54;;;;;;;215.13;204.27;;;18.20;99.90;;;;;;4973532;28;20018;-71
2023/10/18 01:31:20;;;;;;;82.60;78.43;;;18.20;99.90;;;;;;4972397;28;20118;-71
2023/10/18 01:33:47;;;;;;;105.38;100.05;;;18.10;99.90;;;;;;4973279;28;20043;-71
2023/10/18 01:36:17;;;;;;;128.43;121.88;;;18.10;99.90;;;;;;4963474;28;20050;-71
2023/10/18 01:38:46;;;;;;;86.20;81.93;;;18.10;99.90;;;;;;4956375;28;20035;-71
2023/10/18 01:41:58;;;;;;;89.00;84.65;;;18.10;99.90;;;;;;4964045;28;20500;-71
2023/10/18 01:44:06;;;;;;;79.40;75.53;;;18.10;99.90;;;;;;4954483;28;20082;-71
2023/10/18 01:46:36;;;;;;;73.20;69.57;;;18.10;99.90;;;;;;4955517;28;20051;-71
2023/10/18 01:49:06;;;;;;;117.80;111.90;;;18.10;99.90;;;;;;4973472;28;20042;-71
2023/10/18 01:51:33;;;;;;;112.93;107.27;;;18.10;99.90;;;;;;4970903;28;20042;-71
2023/10/18 01:54:02;;;;;;;94.10;89.30;;;18.10;99.90;;;;;;4974178;28;20281;-71
2023/10/18 01:56:29;;;;;;;93.40;88.57;;;18.10;99.90;;;;;;4971947;28;20045;-71
2023/10/18 01:58:55;;;;;;;100.82;95.72;;;18.20;99.90;;;;;;4964636;28;20467;-71
2023/10/18 02:01:22;;;;;;;106.45;101.15;;;18.20;99.90;;;;;;4962272;28;20041;-71
2023/10/18 02:03:50;;;;;;;110.85;105.15;;;18.20;99.90;;;;;;4966278;28;20042;-71
2023/10/18 02:06:17;;;;;;;89.25;84.72;;;18.20;99.90;;;;;;4971935;28;20058;-71
2023/10/18 02:08:43;;;;;;;129.52;122.88;;;18.20;99.90;;;;;;4957083;28;20061;-71
2023/10/18 02:11:09;;;;;;;119.65;113.75;;;18.20;99.90;;;;;;4962158;28;20026;-71
2023/10/18 02:13:39;;;;;;;72.55;69.03;;;18.20;99.90;;;;;;4973387;28;20031;-71
2023/10/18 02:16:06;;;;;;;135.80;128.70;;;18.30;99.90;;;;;;4972338;28;20046;-71
2023/10/18 02:18:35;;;;;;;103.32;97.90;;;18.30;99.90;;;;;;4972698;28;20046;-71
2023/10/18 02:21:02;;;;;;;110.30;104.90;;;18.30;99.90;;;;;;4971522;28;20042;-71
2023/10/18 02:23:34;;;;;;;89.82;85.30;;;18.40;99.90;;;;;;4972778;28;20049;-72
2023/10/18 02:26:09;;;;;;;72.20;68.57;;;18.40;99.90;;;;;;4957355;28;20042;-71
2023/10/18 02:28:36;;;;;;;84.80;80.63;;;18.40;99.90;;;;;;4972391;28;20035;-71
2023/10/18 02:31:13;;;;;;;71.60;67.93;;;18.50;99.90;;;;;;4971875;28;20035;-71
2023/10/18 02:33:42;;;;;;;75.80;71.72;;;18.50;99.90;;;;;;4972281;28;20489;-72
2023/10/18 02:36:11;;;;;;;80.43;76.38;;;18.50;99.90;;;;;;4972026;28;20510;-71
2023/10/18 02:38:38;;;;;;;74.63;70.80;;;18.50;99.90;;;;;;4972138;28;20031;-71
2023/10/18 02:44:15;;;;;;;89.68;85.07;;;18.50;99.90;;;;;;4943103;28;20035;-72
2023/10/18 02:46:45;;;;;;;73.72;69.85;;;18.50;99.90;;;;;;4950617;28;20047;-71
2023/10/18 02:49:11;;;;;;;85.13;80.78;;;18.60;99.90;;;;;;4950618;29;20047;-71
2023/10/18 02:51:37;;;;;;;90.55;85.88;;;18.50;99.90;;;;;;4949823;28;20046;-71
2023/10/18 02:54:16;;;;;;;84.20;80.00;;;18.50;99.90;;;;;;4950315;29;20059;-71
2023/10/18 02:56:55;;;;;;;105.65;100.43;;;18.60;99.90;;;;;;4950707;28;20043;-71
2023/10/18 02:59:24;;;;;;;84.78;80.47;;;18.60;99.90;;;;;;4949625;29;20046;-71
2023/10/18 03:01:54;;;;;;;98.45;93.53;;;18.50;99.90;;;;;;4950016;28;20583;-71
2023/10/18 03:04:22;;;;;;;77.80;73.68;;;18.50;99.90;;;;;;4950882;28;20054;-71
2023/10/18 03:06:52;;;;;;;87.50;83.00;;;18.60;99.90;;;;;;4950513;28;20051;-71
2023/10/18 03:09:27;;;;;;;99.25;94.25;;;18.50;99.90;;;;;;4951168;29;20159;-71
2023/10/18 03:11:56;;;;;;;83.35;78.97;;;18.50;99.90;;;;;;4951095;28;20408;-71
2023/10/18 03:14:23;;;;;;;96.10;91.28;;;18.50;99.90;;;;;;4955064;28;20039;-71
2023/10/18 03:16:49;;;;;;;104.32;99.05;;;18.50;99.90;;;;;;4970554;28;20043;-71
2023/10/18 03:19:18;;;;;;;111.80;106.20;;;18.50;99.90;;;;;;4972393;28;20039;-71
2023/10/18 03:21:47;;;;;;;71.95;67.78;;;18.50;99.90;;;;;;4970707;28;20703;-71
2023/10/18 03:24:14;;;;;;;90.05;85.60;;;18.50;99.90;;;;;;4972766;28;20515;-71
2023/10/18 03:26:41;;;;;;;108.70;103.30;;;18.50;99.90;;;;;;4971414;28;20512;-71
2023/10/18 03:29:16;;;;;;;110.00;104.43;;;18.50;99.90;;;;;;4972657;28;20038;-71
2023/10/18 03:31:43;;;;;;;109.30;103.80;;;18.50;99.90;;;;;;4971792;28;20519;-71
2023/10/18 03:34:19;;;;;;;107.40;101.93;;;18.50;99.90;;;;;;4972171;28;20050;-71
2023/10/18 03:36:49;;;;;;;150.63;143.10;;;18.50;99.90;;;;;;4972002;28;20035;-71
2023/10/18 03:39:15;;;;;;;158.80;150.88;;;18.50;99.90;;;;;;4962634;28;20487;-71
2023/10/18 03:41:41;;;;;;;112.57;107.07;;;18.50;99.90;;;;;;4967761;28;20047;-71
2023/10/18 03:44:13;;;;;;;90.03;85.68;;;18.50;99.90;;;;;;4971556;28;20034;-72
2023/10/18 03:46:47;;;;;;;111.72;106.10;;;18.50;99.90;;;;;;4959702;28;20574;-71
2023/10/18 03:49:38;;;;;;;98.60;93.63;;;18.40;99.90;;;;;;4964066;28;20119;-71
2023/10/18 03:52:27;;;;;;;78.72;74.63;;;18.40;99.90;;;;;;4970875;28;20038;-71
2023/10/18 03:57:28;;;;;;;85.45;81.22;;;18.40;99.90;;;;;;4981349;28;20038;-71
2023/10/18 03:59:58;;;;;;;73.10;69.55;;;18.40;99.90;;;;;;4975108;28;20079;-71
2023/10/18 04:04:57;;;;;;;69.80;65.93;;;18.40;99.90;;;;;;4968939;28;20511;-71
2023/10/18 04:07:24;;;;;;;86.90;82.22;;;18.30;99.90;;;;;;4973748;28;20054;-71
2023/10/18 04:12:27;;;;;;;131.30;124.65;;;18.30;99.90;;;;;;4977123;28;20043;-71
2023/10/18 04:14:56;;;;;;;107.65;102.28;;;18.30;99.90;;;;;;4970728;28;20050;-71
2023/10/18 04:20:22;;;;;;;73.97;70.22;;;18.30;99.90;;;;;;4968314;28;20031;-71
2023/10/18 04:22:50;;;;;;;73.18;69.57;;;18.30;99.90;;;;;;4972210;28;20047;-71
2023/10/18 04:25:32;;;;;;;100.57;95.57;;;18.30;99.90;;;;;;4957733;28;20047;-71
2023/10/18 04:27:58;;;;;;;113.72;107.90;;;18.40;99.90;;;;;;4975389;28;20047;-71
2023/10/18 04:30:25;;;;;;;128.73;122.32;;;18.40;99.90;;;;;;4972276;28;20038;-73
2023/10/18 04:32:59;;;;;;;94.15;89.45;;;18.40;99.90;;;;;;4963977;28;20024;-72
2023/10/18 04:35:40;;;;;;;114.95;109.15;;;18.40;99.90;;;;;;4967778;28;20050;-71
2023/10/18 04:38:21;;;;;;;101.93;96.75;;;18.40;99.90;;;;;;4961141;28;20488;-71
2023/10/18 04:41:07;;;;;;;;;;;18.40;99.90;;;;;;4960278;28;20054;-71
2023/10/18 04:43:33;;;;;;;63.22;59.75;;;18.40;99.90;;;;;;4955965;28;19910;-71
2023/10/18 04:46:02;;;;;;;92.13;87.38;;;18.40;99.90;;;;;;4960118;28;20043;-71
2023/10/18 04:51:28;;;;;;;102.82;97.63;;;18.40;99.90;;;;;;4976970;28;20069;-71
2023/10/18 04:53:59;;;;;;;98.55;93.72;;;18.40;99.90;;;;;;4955530;28;20376;-71
2023/10/18 04:56:34;;;;;;;92.18;87.57;;;18.40;99.90;;;;;;4956116;28;20047;-71
2023/10/18 04:59:00;;;;;;;97.30;92.10;;;18.50;99.90;;;;;;4955540;28;20432;-71
2023/10/18 05:01:36;;;;;;;105.65;100.35;;;18.50;99.90;;;;;;4955041;28;20039;-71
2023/10/18 05:04:48;;;;;;;80.78;76.80;;;18.40;99.90;;;;;;4955231;28;20050;-71
2023/10/18 05:07:00;;;;;;;91.68;86.80;;;18.50;99.90;;;;;;4963342;28;20050;-71
2023/10/18 05:09:41;;;;;;;99.78;94.75;;;18.50;99.90;;;;;;4974533;28;20039;-71
2023/10/18 05:12:27;;;;;;;;;;;18.50;99.90;;;;;;4974681;28;20050;-71
2023/10/18 05:15:17;;;;;;;84.05;79.90;;;18.50;99.90;;;;;;4959733;28;19911;-71
2023/10/18 05:17:43;;;;;;;82.23;78.07;;;18.50;99.90;;;;;;4969308;28;20425;-72
2023/10/18 05:22:48;;;;;;;111.00;105.53;;;18.50;99.90;;;;;;4958858;28;20028;-71
2023/10/18 05:30:27;;;;;;;82.90;78.72;;;18.50;99.90;;;;;;4977684;28;20736;-72
2023/10/18 05:35:28;;;;;;;101.25;96.18;;;18.50;99.90;;;;;;4974949;28;20039;-71
2023/10/18 05:37:59;;;;;;;99.32;94.35;;;18.50;99.90;;;;;;4954828;28;20046;-72
2023/10/18 05:43:03;;;;;;;109.85;104.40;;;18.50;99.90;;;;;;4974620;28;20392;-71
2023/10/18 05:45:31;;;;;;;102.68;97.38;;;18.50;99.90;;;;;;4973435;28;20591;-72
2023/10/18 05:48:02;;;;;;;73.13;69.53;;;18.50;99.90;;;;;;4973764;28;20046;-71
2023/10/18 05:50:29;;;;;;;;;;;18.50;99.90;;;;;;4972342;28;20412;-71
2023/10/18 05:52:58;;;;;;;90.32;85.80;;;18.50;99.90;;;;;;4974438;28;19906;-71
2023/10/18 05:55:24;;;;;;;104.45;99.30;;;18.50;99.90;;;;;;4970323;28;20034;-72
2023/10/18 05:57:50;;;;;;;74.18;70.43;;;18.50;99.90;;;;;;4954599;29;20023;-71
2023/10/18 06:00:17;;;;;;;111.03;105.13;;;18.50;99.90;;;;;;4969715;28;20499;-71
2023/10/18 06:02:45;;;;;;;135.02;128.35;;;18.50;99.90;;;;;;4958114;28;20119;-71
2023/10/18 06:05:12;;;;;;;142.43;134.98;;;18.50;99.90;;;;;;4973617;28;20055;-71
2023/10/18 06:07:38;;;;;;;100.68;95.32;;;18.50;99.90;;;;;;4963022;28;20047;-72
2023/10/18 06:10:16;;;;;;;123.55;116.90;;;18.60;99.90;;;;;;4957092;28;20035;-72
2023/10/18 06:12:48;;;;;;;138.68;131.35;;;18.60;99.90;;;;;;4970302;28;20047;-72
2023/10/18 06:15:30;;;;;;;128.40;121.95;;;18.60;99.90;;;;;;4970020;28;20499;-72
2023/10/18 06:17:57;;;;;;;121.15;115.03;;;18.60;99.90;;;;;;4973182;28;20026;-73
2023/10/18 06:23:07;;;;;;;128.07;121.80;;;18.70;99.90;;;;;;4975756;28;20018;-71
2023/10/18 06:25:37;;;;;;;121.10;114.85;;;18.70;99.90;;;;;;4957585;28;20045;-71
2023/10/18 06:28:07;;;;;;;106.78;101.25;;;18.70;99.90;;;;;;4967554;28;20038;-72
2023/10/18 06:30:39;;;;;;;112.95;107.30;;;18.70;99.90;;;;;;4970746;28;20042;-72
2023/10/18 06:33:09;;;;;;;128.90;122.57;;;18.70;99.90;;;;;;4969707;28;20047;-72
2023/10/18 06:35:51;;;;;;;145.07;137.90;;;18.70;99.90;;;;;;4960640;28;20051;-70
2023/10/18 06:38:22;;;;;;;138.35;131.45;;;18.70;99.90;;;;;;4955619;28;20035;-71
2023/10/18 06:41:00;;;;;;;139.25;132.23;;;18.70;99.90;;;;;;4972625;28;20026;-70
2023/10/18 06:43:27;;;;;;;119.20;113.25;;;18.70;99.90;;;;;;4964612;28;20039;-70
2023/10/18 06:45:57;;;;;;;162.65;154.50;;;18.70;99.90;;;;;;4966924;28;20039;-70
2023/10/18 06:48:30;;;;;;;142.18;134.95;;;18.60;99.90;;;;;;4954068;29;20036;-70
2023/10/18 06:51:00;;;;;;;162.98;154.88;;;18.70;99.90;;;;;;4954654;28;20035;-70
2023/10/18 06:53:26;;;;;;;139.55;132.63;;;18.60;99.90;;;;;;4963683;28;20035;-70
2023/10/18 06:55:56;;;;;;;168.82;160.45;;;18.60;99.90;;;;;;4953424;28;20031;-70
2023/10/18 07:00:55;;;;;;;173.65;165.05;;;18.60;99.90;;;;;;4973720;28;20034;-69
2023/10/18 07:03:33;;;;;;;185.48;176.18;;;18.60;99.90;;;;;;4973025;28;20039;-70
2023/10/18 07:06:16;;;;;;;186.07;176.80;;;18.60;99.90;;;;;;4966399;28;20089;-70
2023/10/18 07:08:45;;;;;;;198.40;188.55;;;18.50;99.90;;;;;;4959417;28;20042;-69
2023/10/18 07:11:16;;;;;;;161.50;152.82;;;18.50;99.90;;;;;;4964664;28;20055;-70
2023/10/18 07:13:49;;;;;;;179.95;171.00;;;18.50;99.90;;;;;;4953897;28;20039;-70
2023/10/18 07:16:24;;;;;;;204.95;194.15;;;18.40;99.90;;;;;;4959335;28;20067;-70
2023/10/18 07:19:04;;;;;;;188.13;178.68;;;18.40;99.90;;;;;;4963787;28;20046;-70
2023/10/18 07:21:32;;;;;;;181.88;171.80;;;18.40;99.90;;;;;;4964261;28;20047;-70
2023/10/18 07:24:10;;;;;;;196.07;186.02;;;18.30;99.90;;;;;;4970917;28;20050;-70
2023/10/18 07:26:37;;;;;;;122.13;115.45;;;18.40;99.90;;;;;;4961280;28;20051;-69
2023/10/18 07:29:09;;;;;;;107.90;102.03;;;18.30;99.90;;;;;;4952740;28;20028;-69
2023/10/18 07:31:38;;;;;;;110.72;104.47;;;18.30;99.90;;;;;;4956482;28;20047;-69
2023/10/18 07:34:08;;;;;;;136.40;128.82;;;18.30;99.90;;;;;;4957425;29;20024;-69
2023/10/18 07:36:44;;;;;;;141.00;133.45;;;18.30;99.90;;;;;;4956656;28;20058;-69
2023/10/18 07:39:16;;;;;;;152.93;144.25;;;18.30;99.90;;;;;;4956396;28;20046;-69
2023/10/18 07:41:46;;;;;;;162.82;154.40;;;18.30;99.90;;;;;;4956778;28;20055;-71
2023/10/18 07:44:12;;;;;;;162.25;153.55;;;18.20;99.90;;;;;;4974185;28;20073;-72
2023/10/18 07:46:41;;;;;;;142.95;135.00;;;18.20;99.90;;;;;;4963459;28;20047;-72
2023/10/18 07:49:14;;;;;;;147.63;139.93;;;18.20;99.90;;;;;;4976308;28;20035;-72
2023/10/18 07:51:43;;;;;;;187.20;177.02;;;18.20;99.90;;;;;;4964146;28;20039;-71
2023/10/18 07:54:14;;;;;;;189.73;179.25;;;18.20;99.90;;;;;;4956918;29;20023;-72
2023/10/18 07:56:50;;;;;;;146.23;138.50;;;18.20;99.90;;;;;;4956958;28;20035;-72
2023/10/18 07:59:32;;;;;;;175.13;165.35;;;18.20;99.90;;;;;;4976121;28;20034;-71
2023/10/18 08:04:47;;;;;;;158.63;150.00;;;18.20;99.90;;;;;;4982806;28;20038;-72
2023/10/18 08:07:20;;;;;;;157.90;149.25;;;18.20;99.90;;;;;;4973716;28;20047;-72
2023/10/18 08:09:57;;;;;;;168.05;159.27;;;18.20;99.90;;;;;;4958061;28;20040;-71
2023/10/18 08:12:36;;;;;;;152.45;144.00;;;18.20;99.90;;;;;;4974516;28;20511;-71
2023/10/18 08:15:13;;;;;;;115.20;108.93;;;18.20;99.90;;;;;;4975064;28;20038;-68
2023/10/18 08:22:47;;;;;;;128.77;121.75;;;18.20;99.90;;;;;;4977078;28;20038;-72
2023/10/18 08:25:24;;;;;;;86.13;80.75;;;18.20;99.90;;;;;;4975362;28;20232;-71
2023/10/18 08:27:50;;;;;;;100.85;94.60;;;18.30;99.90;;;;;;4956320;28;20055;-71
2023/10/18 08:33:03;;;;;;;115.80;109.20;;;18.30;99.90;;;;;;4962546;28;20035;-72
2023/10/18 08:35:29;;;;;;;140.45;132.63;;;18.30;99.90;;;;;;4955679;28;20042;-71
2023/10/18 08:38:01;;;;;;;80.88;76.32;;;18.40;99.90;;;;;;4955114;29;20050;-71
2023/10/18 08:40:36;;;;;;;93.15;87.97;;;18.40;99.90;;;;;;4955805;28;20043;-71
2023/10/18 08:43:23;;;;;;;119.32;112.95;;;18.50;99.90;;;;;;4963810;28;20037;-71
2023/10/18 08:45:50;;;;;;;91.63;86.47;;;18.50;99.90;;;;;;4966295;28;20155;-71
2023/10/18 08:48:17;;;;;;;140.00;132.32;;;18.50;99.90;;;;;;4956134;28;20051;-71
2023/10/18 08:50:44;;;;;;;121.80;115.10;;;18.50;99.90;;;;;;4955508;28;20039;-71
2023/10/18 08:53:10;;;;;;;119.65;112.97;;;18.60;99.90;;;;;;4938736;29;20411;-72
2023/10/18 08:55:51;;;;;;;125.82;119.13;;;18.60;99.90;;;;;;4956023;28;20461;-71
2023/10/18 08:58:18;;;;;;;114.55;108.10;;;18.70;99.90;;;;;;4957133;28;20050;-71
2023/10/18 09:01:09;;;;;;;114.90;108.72;;;18.70;99.90;;;;;;4966188;28;20413;-70
2023/10/18 09:03:32;;;;;;;130.48;123.43;;;18.70;99.90;;;;;;4948413;29;20055;-70
2023/10/18 09:06:04;;;;;;;143.15;135.40;;;18.70;99.90;;;;;;4942275;29;20046;-70
2023/10/18 09:09:18;;;;;;;151.45;143.20;;;18.70;99.90;;;;;;4969817;28;20039;-70
2023/10/18 09:11:24;;;;;;;147.75;139.73;;;18.70;99.90;;;;;;4948276;28;20059;-70
2023/10/18 09:14:08;;;;;;;115.13;108.80;;;18.80;99.90;;;;;;4919578;29;20028;-70
2023/10/18 09:16:36;;;;;;;116.85;110.57;;;18.80;99.90;;;;;;4960157;28;20050;-70
2023/10/18 09:19:02;;;;;;;161.40;152.65;;;18.80;99.90;;;;;;4974277;28;20049;-70
2023/10/18 09:21:36;;;;;;;177.40;167.60;;;18.80;99.90;;;;;;4974511;28;20022;-70
2023/10/18 09:24:09;;;;;;;161.73;152.95;;;18.80;99.90;;;;;;4973802;28;20050;-70
2023/10/18 09:26:41;;;;;;;135.25;127.78;;;18.80;99.90;;;;;;4962006;28;20531;-69
2023/10/18 09:29:11;;;;;;;141.60;134.05;;;18.80;99.90;;;;;;4954173;29;20027;-69
2023/10/18 09:32:02;;;;;;;139.45;132.35;;;18.70;99.90;;;;;;4961394;28;20031;-70
2023/10/18 09:34:38;;;;;;;157.52;149.27;;;18.80;99.90;;;;;;4954893;29;20031;-69
2023/10/18 09:37:13;;;;;;;145.95;137.75;;;18.70;99.90;;;;;;4953536;29;20039;-69
2023/10/18 09:39:43;;;;;;;132.00;124.60;;;18.70;99.90;;;;;;4954111;29;20108;-69
2023/10/18 09:42:12;;;;;;;107.47;101.88;;;18.70;99.90;;;;;;4953601;29;20031;-69
2023/10/18 09:44:41;;;;;;;128.75;121.80;;;18.70;99.90;;;;;;4954283;29;20027;-69
2023/10/18 09:47:08;;;;;;;116.25;110.03;;;18.70;99.90;;;;;;4953963;28;20066;-69
2023/10/18 09:49:34;;;;;;;112.88;106.97;;;18.70;99.90;;;;;;4957348;28;20049;-70
2023/10/18 09:52:03;;;;;;;154.23;146.45;;;18.70;99.90;;;;;;4967412;28;20046;-69
2023/10/18 09:54:34;;;;;;;109.13;103.45;;;18.70;99.90;;;;;;4972983;28;20035;-68
2023/10/18 09:57:00;;;;;;;110.22;104.43;;;18.70;99.90;;;;;;4957423;28;20549;-68
2023/10/18 09:59:26;;;;;;;134.57;127.63;;;18.70;99.90;;;;;;4953226;29;20035;-69
2023/10/18 10:01:57;;;;;;;143.75;136.35;;;18.70;99.90;;;;;;4952891;28;20035;-68
2023/10/18 10:04:23;;;;;;;133.82;126.57;;;18.80;99.90;;;;;;4937498;29;20059;-71
2023/10/18 10:07:27;;;;;;;101.65;96.50;;;18.80;99.90;;;;;;4953124;28;20054;-71
2023/10/18 10:09:48;;;;;;;135.75;128.85;;;18.80;99.90;;;;;;4954662;29;20038;-71
2023/10/18 10:12:18;;;;;;;121.35;115.18;;;18.80;99.90;;;;;;4953226;28;20047;-72
2023/10/18 10:14:47;;;;;;;96.13;91.28;;;18.80;99.90;;;;;;4955012;28;20503;-71
2023/10/18 10:17:17;;;;;;;100.90;95.93;;;18.90;99.90;;;;;;4954889;28;20414;-71
2023/10/18 10:19:48;;;;;;;99.30;94.40;;;18.90;99.90;;;;;;4937843;29;20048;-71
2023/10/18 10:22:15;;;;;;;;;;;18.90;99.90;;;;;;4954678;28;20031;-71
2023/10/18 10:24:42;;;;;;;112.47;106.85;;;18.90;99.90;;;;;;4955145;28;20271;-71
2023/10/18 10:27:41;;;;;;;85.18;80.90;;;18.90;99.90;;;;;;4953995;28;20072;-71
2023/10/18 10:32:48;;;;;;;127.28;120.78;;;19.00;99.90;;;;;;4976492;28;20030;-71
2023/10/18 10:35:15;;;;;;;106.72;101.45;;;19.00;99.90;;;;;;4971473;28;20035;-71
2023/10/18 10:37:48;;;;;;;93.93;89.32;;;19.10;99.90;;;;;;4959494;28;20404;-71
2023/10/18 10:43:09;;;;;;;103.68;98.57;;;19.10;99.90;;;;;;4972272;28;20031;-71
2023/10/18 10:45:38;;;;;;;112.63;107.13;;;19.20;99.90;;;;;;4971639;28;20035;-71
2023/10/18 10:51:20;;;;;;;145.77;138.50;;;19.30;99.90;;;;;;4963719;28;20493;-71
2023/10/18 10:53:58;;;;;;;172.15;163.48;;;19.30;99.90;;;;;;4953635;28;20070;-71
2023/10/18 10:56:26;;;;;;;161.15;152.93;;;19.40;99.90;;;;;;4961090;28;20045;-71
2023/10/18 10:59:21;;;;;;;154.45;146.57;;;19.40;99.90;;;;;;4962636;28;20503;-71
2023/10/18 11:04:27;;;;;;;121.40;115.38;;;19.50;99.90;;;;;;4974304;28;20035;-71
2023/10/18 11:06:57;;;;;;;158.18;150.23;;;19.60;99.90;;;;;;4973392;28;20042;-71
2023/10/18 11:09:33;;;;;;;122.22;116.13;;;19.60;99.90;;;;;;4970293;28;20054;-72
2023/10/18 11:12:12;;;;;;;124.97;118.68;;;19.60;99.90;;;;;;4961801;28;20375;-70
2023/10/18 11:14:38;;;;;;;162.32;154.10;;;19.60;99.90;;;;;;4957007;28;20054;-71
2023/10/18 11:22:41;;;;;;;159.30;151.13;;;19.80;99.90;;;;;;4935738;29;20054;-71
2023/10/18 11:25:13;;;;;;;127.35;120.68;;;19.80;99.90;;;;;;4935887;29;20485;-71
2023/10/18 11:27:39;;;;;;;115.72;109.75;;;19.80;99.90;;;;;;4926598;29;20063;-71
2023/10/18 11:30:15;;;;;;;125.50;119.15;;;19.80;99.90;;;;;;4934976;28;20032;-71
2023/10/18 11:32:48;;;;;;;169.35;160.27;;;19.90;99.90;;;;;;4916493;29;20477;-71
2023/10/18 11:35:26;;;;;;;174.57;165.65;;;19.90;99.90;;;;;;4916388;29;20457;-71
2023/10/18 11:37:53;;;;;;;161.77;153.40;;;19.90;99.90;;;;;;4933655;29;20055;-71
2023/10/18 11:40:21;;;;;;;158.13;150.00;;;19.90;99.90;;;;;;4934531;29;20031;-71
2023/10/18 11:42:53;;;;;;;154.32;146.43;;;19.90;99.90;;;;;;4932837;29;20052;-71
2023/10/18 11:45:20;;;;;;;125.10;118.82;;;19.80;99.90;;;;;;4933920;29;20113;-71
2023/10/18 11:47:51;;;;;;;199.52;188.85;;;19.90;99.90;;;;;;4935035;29;20054;-71
2023/10/18 11:50:27;;;;;;;167.52;158.45;;;19.80;99.90;;;;;;4919198;29;20074;-72
2023/10/18 11:52:54;;;;;;;205.77;194.48;;;19.80;99.90;;;;;;4920519;29;20402;-70
2023/10/18 11:55:20;;;;;;;210.85;198.43;;;19.90;99.90;;;;;;4934504;29;20043;-71
2023/10/18 11:57:46;;;;;;;207.93;196.95;;;19.80;99.90;;;;;;4934047;29;20381;-71
2023/10/18 12:02:48;;;;;;;231.15;218.20;;;19.80;99.90;;;;;;4972530;28;20035;-71
2023/10/18 12:05:15;;;;;;;239.48;226.75;;;19.80;99.90;;;;;;4974743;28;20039;-71
2023/10/18 12:07:48;;;;;;;193.25;183.27;;;19.80;99.90;;;;;;4961695;28;20054;-70
2023/10/18 12:10:18;;;;;;;217.73;206.15;;;19.80;99.90;;;;;;4973595;28;20050;-68
2023/10/18 12:12:44;;;;;;;225.23;213.32;;;19.80;99.90;;;;;;4976142;28;20319;-68
2023/10/18 12:15:12;;;;;;;189.70;179.73;;;19.80;99.90;;;;;;4973961;28;20480;-68
2023/10/18 12:17:38;;;;;;;196.90;186.68;;;19.80;99.90;;;;;;4970692;28;20042;-69
2023/10/18 12:20:08;;;;;;;194.13;184.27;;;19.90;99.90;;;;;;4969397;28;20034;-68
2023/10/18 12:22:36;;;;;;;202.93;192.50;;;19.90;99.90;;;;;;4959982;28;20058;-68
2023/10/18 12:25:02;;;;;;;242.70;229.85;;;19.90;99.90;;;;;;4956506;28;20400;-68
2023/10/18 12:27:35;;;;;;;241.20;228.35;;;19.90;99.90;;;;;;4958875;28;20034;-68
2023/10/18 12:30:27;;;;;;;220.63;208.98;;;19.80;99.90;;;;;;4975718;28;20047;-68
2023/10/18 12:32:54;;;;;;;197.73;187.52;;;19.80;99.90;;;;;;4955441;28;20043;-68
2023/10/18 12:35:20;;;;;;;234.77;222.32;;;19.80;99.90;;;;;;4953821;29;20046;-68
2023/10/18 12:37:47;;;;;;;188.93;179.07;;;19.80;99.90;;;;;;4936430;29;20043;-68
2023/10/18 12:40:28;;;;;;;200.77;190.05;;;19.80;99.90;;;;;;4937433;29;20032;-68
2023/10/18 12:43:00;;;;;;;173.63;164.68;;;19.80;99.90;;;;;;4948242;28;20400;-68
2023/10/18 12:45:27;;;;;;;168.77;160.20;;;19.70;99.90;;;;;;4938400;28;20041;-68
2023/10/18 12:47:53;;;;;;;180.45;171.25;;;19.70;99.90;;;;;;4953909;29;20052;-68
2023/10/18 12:50:19;;;;;;;176.07;166.88;;;19.70;99.90;;;;;;4954352;29;20035;-68
2023/10/18 12:52:52;;;;;;;203.10;192.32;;;19.80;99.90;;;;;;4948558;29;20028;-68
2023/10/18 12:55:36;;;;;;;208.50;197.60;;;19.80;99.90;;;;;;4948400;29;20054;-68
2023/10/18 12:58:06;;;;;;;185.88;176.13;;;19.80;99.90;;;;;;4955121;28;20436;-68
2023/10/18 13:00:42;;;;;;;185.07;175.55;;;19.70;99.90;;;;;;4950723;28;20043;-68
2023/10/18 13:05:42;;;;;;;193.10;183.00;;;19.60;99.90;;;;;;4951486;29;20035;-68
2023/10/18 13:08:16;;;;;;;181.27;171.52;;;19.60;99.90;;;;;;4955312;28;20090;-68
2023/10/18 13:11:44;;;;;;;179.68;170.10;;;19.60;99.90;;;;;;4955058;29;20019;-68
2023/10/18 13:13:46;;;;;;;184.88;174.90;;;19.50;99.90;;;;;;4955411;28;20058;-68
2023/10/18 13:16:15;;;;;;;191.85;181.40;;;19.50;99.90;;;;;;4953954;28;20051;-67
2023/10/18 13:18:41;;;;;;;204.00;193.32;;;19.50;99.90;;;;;;4954948;28;20043;-68
2023/10/18 13:21:15;;;;;;;192.85;182.13;;;19.50;99.90;;;;;;4944536;28;20370;-69
2023/10/18 13:23:44;;;;;;;174.15;164.35;;;19.50;99.90;;;;;;4954076;28;20043;-69
2023/10/18 13:26:11;;;;;;;182.45;172.32;;;19.40;99.90;;;;;;4953945;28;20055;-71
2023/10/18 13:28:51;;;;;;;237.38;224.15;;;19.50;99.90;;;;;;4954531;28;20039;-71
2023/10/18 13:31:30;;;;;;;205.10;193.95;;;19.50;99.90;;;;;;4953978;28;20044;-71
2023/10/18 13:34:06;;;;;;;198.23;187.45;;;19.50;99.90;;;;;;4953917;28;20059;-71
2023/10/18 13:36:33;;;;;;;204.80;194.02;;;19.50;99.90;;;;;;4947134;28;20048;-71
2023/10/18 13:39:00;;;;;;;189.13;179.43;;;19.50;99.90;;;;;;4935260;29;20047;-71
2023/10/18 13:41:26;;;;;;;200.98;190.68;;;19.40;99.90;;;;;;4945503;29;20409;-71
2023/10/18 13:43:54;;;;;;;203.70;193.32;;;19.40;99.90;;;;;;4939849;29;20040;-71